sensor_id;sensor_type;location;lat;lon;timestamp;P1;durP1;ratioP1;P2;durP2;ratioP2
3561;SDS011;1795;52.074;4.754;2022-09-01T00:02:27;2.03;;;1.15;;
3561;SDS011;1795;52.074;4.754;2022-09-01T00:04:55;2.40;;;1.30;;
3561;SDS011;1795;52.074;4.754;2022-09-01T00:07:24;1.90;;;1.30;;
3561;SDS011;1795;52.074;4.754;2022-09-01T00:09:55;1.95;;;1.10;;
3561;SDS011;1795;52.074;4.754;2022-09-01T00:12:23;2.40;;;1.67;;
3561;SDS011;1795;52.074;4.754;2022-09-01T00:14:52;2.13;;;1.30;;
3561;SDS011;1795;52.074;4.754;2022-09-01T00:17:21;3.10;;;1.27;;
3561;SDS011;1795;52.074;4.754;2022-09-01T00:19:50;5.07;;;1.40;;
3561;SDS011;1795;52.074;4.754;2022-09-01T00:22:18;1.92;;;1.10;;
3561;SDS011;1795;52.074;4.754;2022-09-01T00:24:46;3.60;;;1.48;;
3561;SDS011;1795;52.074;4.754;2022-09-01T00:27:14;3.60;;;1.30;;
3561;SDS011;1795;52.074;4.754;2022-09-01T00:29:43;1.40;;;1.10;;
3561;SDS011;1795;52.074;4.754;2022-09-01T00:32:11;1.35;;;1.25;;
3561;SDS011;1795;52.074;4.754;2022-09-01T00:34:40;2.90;;;1.20;;
3561;SDS011;1795;52.074;4.754;2022-09-01T00:37:08;3.17;;;1.20;;
3561;SDS011;1795;52.074;4.754;2022-09-01T00:39:36;2.30;;;1.38;;
3561;SDS011;1795;52.074;4.754;2022-09-01T00:42:04;1.90;;;1.20;;
3561;SDS011;1795;52.074;4.754;2022-09-01T00:44:32;2.03;;;1.10;;
3561;SDS011;1795;52.074;4.754;2022-09-01T00:47:04;3.10;;;1.30;;
3561;SDS011;1795;52.074;4.754;2022-09-01T00:49:33;2.15;;;1.40;;
3561;SDS011;1795;52.074;4.754;2022-09-01T00:52:05;2.85;;;1.10;;
3561;SDS011;1795;52.074;4.754;2022-09-01T00:54:37;1.40;;;1.20;;
3561;SDS011;1795;52.074;4.754;2022-09-01T00:57:09;2.38;;;1.20;;
3561;SDS011;1795;52.074;4.754;2022-09-01T00:59:41;5.32;;;1.67;;
3561;SDS011;1795;52.074;4.754;2022-09-01T01:02:14;3.03;;;1.30;;
3561;SDS011;1795;52.074;4.754;2022-09-01T01:04:42;2.75;;;1.23;;
3561;SDS011;1795;52.074;4.754;2022-09-01T01:07:12;1.88;;;1.20;;
3561;SDS011;1795;52.074;4.754;2022-09-01T01:09:43;2.95;;;1.40;;
3561;SDS011;1795;52.074;4.754;2022-09-01T01:12:12;1.30;;;1.10;;
3561;SDS011;1795;52.074;4.754;2022-09-01T01:14:44;2.20;;;1.10;;
3561;SDS011;1795;52.074;4.754;2022-09-01T01:17:13;3.55;;;1.38;;
3561;SDS011;1795;52.074;4.754;2022-09-01T01:19:41;3.60;;;1.10;;
3561;SDS011;1795;52.074;4.754;2022-09-01T01:22:33;2.10;;;1.40;;
3561;SDS011;1795;52.074;4.754;2022-09-01T01:25:24;1.63;;;1.30;;
3561;SDS011;1795;52.074;4.754;2022-09-01T01:28:02;2.00;;;1.20;;
3561;SDS011;1795;52.074;4.754;2022-09-01T01:30:35;1.50;;;1.05;;
3561;SDS011;1795;52.074;4.754;2022-09-01T01:33:05;1.20;;;1.10;;
3561;SDS011;1795;52.074;4.754;2022-09-01T01:35:33;2.47;;;1.20;;
3561;SDS011;1795;52.074;4.754;2022-09-01T01:38:02;2.15;;;1.20;;
3561;SDS011;1795;52.074;4.754;2022-09-01T01:40:34;1.92;;;1.30;;
3561;SDS011;1795;52.074;4.754;2022-09-01T01:43:03;1.70;;;1.20;;
3561;SDS011;1795;52.074;4.754;2022-09-01T01:45:32;2.30;;;1.17;;
3561;SDS011;1795;52.074;4.754;2022-09-01T01:48:00;2.22;;;1.30;;
3561;SDS011;1795;52.074;4.754;2022-09-01T01:50:31;2.53;;;1.20;;
3561;SDS011;1795;52.074;4.754;2022-09-01T01:53:01;2.60;;;1.10;;
3561;SDS011;1795;52.074;4.754;2022-09-01T01:55:38;2.42;;;1.20;;
3561;SDS011;1795;52.074;4.754;2022-09-01T01:58:08;6.38;;;1.70;;
3561;SDS011;1795;52.074;4.754;2022-09-01T02:00:37;1.63;;;1.38;;
3561;SDS011;1795;52.074;4.754;2022-09-01T02:03:08;2.10;;;1.20;;
3561;SDS011;1795;52.074;4.754;2022-09-01T02:05:38;2.58;;;1.35;;
3561;SDS011;1795;52.074;4.754;2022-09-01T02:08:07;4.40;;;1.57;;
3561;SDS011;1795;52.074;4.754;2022-09-01T02:10:39;1.70;;;1.20;;
3561;SDS011;1795;52.074;4.754;2022-09-01T02:13:09;2.30;;;1.40;;
3561;SDS011;1795;52.074;4.754;2022-09-01T02:15:42;2.90;;;1.40;;
3561;SDS011;1795;52.074;4.754;2022-09-01T02:18:15;1.40;;;1.30;;
3561;SDS011;1795;52.074;4.754;2022-09-01T02:20:44;2.85;;;1.35;;
3561;SDS011;1795;52.074;4.754;2022-09-01T02:23:14;4.60;;;1.30;;
3561;SDS011;1795;52.074;4.754;2022-09-01T02:25:46;1.67;;;1.20;;
3561;SDS011;1795;52.074;4.754;2022-09-01T02:28:36;1.30;;;1.20;;
3561;SDS011;1795;52.074;4.754;2022-09-01T02:31:07;4.07;;;1.60;;
3561;SDS011;1795;52.074;4.754;2022-09-01T02:33:37;1.80;;;1.40;;
3561;SDS011;1795;52.074;4.754;2022-09-01T02:36:07;4.30;;;1.80;;
3561;SDS011;1795;52.074;4.754;2022-09-01T02:38:37;1.30;;;1.20;;
3561;SDS011;1795;52.074;4.754;2022-09-01T02:41:12;2.30;;;1.40;;
3561;SDS011;1795;52.074;4.754;2022-09-01T02:43:45;1.80;;;1.30;;
3561;SDS011;1795;52.074;4.754;2022-09-01T02:46:14;1.58;;;1.40;;
3561;SDS011;1795;52.074;4.754;2022-09-01T02:48:43;4.30;;;1.50;;
3561;SDS011;1795;52.074;4.754;2022-09-01T02:51:17;2.55;;;1.60;;
3561;SDS011;1795;52.074;4.754;2022-09-01T02:53:47;5.07;;;1.50;;
3561;SDS011;1795;52.074;4.754;2022-09-01T02:56:19;2.20;;;1.40;;
3561;SDS011;1795;52.074;4.754;2022-09-01T02:58:50;1.45;;;1.35;;
3561;SDS011;1795;52.074;4.754;2022-09-01T03:01:20;2.88;;;1.30;;
3561;SDS011;1795;52.074;4.754;2022-09-01T03:03:52;3.80;;;1.50;;
3561;SDS011;1795;52.074;4.754;2022-09-01T03:06:21;4.75;;;1.30;;
3561;SDS011;1795;52.074;4.754;2022-09-01T03:08:51;4.28;;;1.70;;
3561;SDS011;1795;52.074;4.754;2022-09-01T03:11:22;3.42;;;1.50;;
3561;SDS011;1795;52.074;4.754;2022-09-01T03:13:50;3.33;;;1.58;;
3561;SDS011;1795;52.074;4.754;2022-09-01T03:16:19;1.40;;;1.30;;
3561;SDS011;1795;52.074;4.754;2022-09-01T03:18:49;2.45;;;1.42;;
3561;SDS011;1795;52.074;4.754;2022-09-01T03:21:18;3.60;;;1.40;;
3561;SDS011;1795;52.074;4.754;2022-09-01T03:23:47;3.37;;;1.90;;
3561;SDS011;1795;52.074;4.754;2022-09-01T03:26:17;2.75;;;1.80;;
3561;SDS011;1795;52.074;4.754;2022-09-01T03:28:49;3.22;;;1.20;;
3561;SDS011;1795;52.074;4.754;2022-09-01T03:31:18;3.50;;;1.63;;
3561;SDS011;1795;52.074;4.754;2022-09-01T03:33:47;1.90;;;1.40;;
3561;SDS011;1795;52.074;4.754;2022-09-01T03:36:16;1.70;;;1.30;;
3561;SDS011;1795;52.074;4.754;2022-09-01T03:38:45;3.80;;;1.50;;
3561;SDS011;1795;52.074;4.754;2022-09-01T03:41:15;3.28;;;1.45;;
3561;SDS011;1795;52.074;4.754;2022-09-01T03:43:44;1.98;;;1.40;;
3561;SDS011;1795;52.074;4.754;2022-09-01T03:46:15;1.83;;;1.63;;
3561;SDS011;1795;52.074;4.754;2022-09-01T03:48:47;2.08;;;1.70;;
3561;SDS011;1795;52.074;4.754;2022-09-01T03:51:16;4.60;;;1.63;;
3561;SDS011;1795;52.074;4.754;2022-09-01T03:53:45;3.92;;;1.67;;
3561;SDS011;1795;52.074;4.754;2022-09-01T03:56:13;1.70;;;1.50;;
3561;SDS011;1795;52.074;4.754;2022-09-01T03:58:41;2.47;;;1.60;;
3561;SDS011;1795;52.074;4.754;2022-09-01T04:01:13;1.50;;;1.35;;
3561;SDS011;1795;52.074;4.754;2022-09-01T04:03:42;4.15;;;1.60;;
3561;SDS011;1795;52.074;4.754;2022-09-01T04:06:14;2.40;;;1.60;;
3561;SDS011;1795;52.074;4.754;2022-09-01T04:08:44;3.92;;;1.73;;
3561;SDS011;1795;52.074;4.754;2022-09-01T04:11:13;2.60;;;1.45;;
3561;SDS011;1795;52.074;4.754;2022-09-01T04:13:43;1.75;;;1.60;;
3561;SDS011;1795;52.074;4.754;2022-09-01T04:16:17;3.40;;;1.70;;
3561;SDS011;1795;52.074;4.754;2022-09-01T04:19:05;3.42;;;1.70;;
3561;SDS011;1795;52.074;4.754;2022-09-01T04:21:41;2.70;;;1.70;;
3561;SDS011;1795;52.074;4.754;2022-09-01T04:24:10;2.58;;;2.10;;
3561;SDS011;1795;52.074;4.754;2022-09-01T04:26:40;5.05;;;2.28;;
3561;SDS011;1795;52.074;4.754;2022-09-01T04:29:11;2.37;;;2.17;;
3561;SDS011;1795;52.074;4.754;2022-09-01T04:31:41;4.75;;;2.20;;
3561;SDS011;1795;52.074;4.754;2022-09-01T04:34:09;3.63;;;2.80;;
3561;SDS011;1795;52.074;4.754;2022-09-01T04:36:38;5.18;;;2.45;;
3561;SDS011;1795;52.074;4.754;2022-09-01T04:39:09;3.88;;;2.45;;
3561;SDS011;1795;52.074;4.754;2022-09-01T04:41:39;3.20;;;2.30;;
3561;SDS011;1795;52.074;4.754;2022-09-01T04:44:11;4.05;;;2.40;;
3561;SDS011;1795;52.074;4.754;2022-09-01T04:46:46;2.40;;;2.10;;
3561;SDS011;1795;52.074;4.754;2022-09-01T04:49:16;3.60;;;2.03;;
3561;SDS011;1795;52.074;4.754;2022-09-01T04:51:48;3.53;;;1.90;;
3561;SDS011;1795;52.074;4.754;2022-09-01T04:54:19;2.20;;;2.00;;
3561;SDS011;1795;52.074;4.754;2022-09-01T04:56:49;2.45;;;1.90;;
3561;SDS011;1795;52.074;4.754;2022-09-01T04:59:20;3.50;;;2.10;;
3561;SDS011;1795;52.074;4.754;2022-09-01T05:01:50;3.38;;;2.00;;
3561;SDS011;1795;52.074;4.754;2022-09-01T05:04:21;3.42;;;2.10;;
3561;SDS011;1795;52.074;4.754;2022-09-01T05:06:53;3.38;;;1.90;;
3561;SDS011;1795;52.074;4.754;2022-09-01T05:09:23;2.20;;;1.70;;
3561;SDS011;1795;52.074;4.754;2022-09-01T05:11:51;2.85;;;1.80;;
3561;SDS011;1795;52.074;4.754;2022-09-01T05:14:19;4.73;;;2.00;;
3561;SDS011;1795;52.074;4.754;2022-09-01T05:16:48;2.30;;;1.83;;
3561;SDS011;1795;52.074;4.754;2022-09-01T05:19:20;2.78;;;2.08;;
3561;SDS011;1795;52.074;4.754;2022-09-01T05:21:51;1.80;;;1.67;;
3561;SDS011;1795;52.074;4.754;2022-09-01T05:24:19;3.47;;;1.90;;
3561;SDS011;1795;52.074;4.754;2022-09-01T05:26:47;2.25;;;1.70;;
3561;SDS011;1795;52.074;4.754;2022-09-01T05:29:16;2.00;;;1.80;;
3561;SDS011;1795;52.074;4.754;2022-09-01T05:31:45;3.53;;;1.60;;
3561;SDS011;1795;52.074;4.754;2022-09-01T05:34:15;3.50;;;1.70;;
3561;SDS011;1795;52.074;4.754;2022-09-01T05:36:53;2.40;;;1.50;;
3561;SDS011;1795;52.074;4.754;2022-09-01T05:39:24;3.33;;;1.90;;
3561;SDS011;1795;52.074;4.754;2022-09-01T05:41:52;4.20;;;2.00;;
3561;SDS011;1795;52.074;4.754;2022-09-01T05:44:21;1.80;;;1.50;;
3561;SDS011;1795;52.074;4.754;2022-09-01T05:46:49;2.75;;;2.05;;
3561;SDS011;1795;52.074;4.754;2022-09-01T05:49:18;3.67;;;1.95;;
3561;SDS011;1795;52.074;4.754;2022-09-01T05:51:47;5.85;;;2.20;;
3561;SDS011;1795;52.074;4.754;2022-09-01T05:54:19;3.00;;;1.80;;
3561;SDS011;1795;52.074;4.754;2022-09-01T05:56:48;2.53;;;1.60;;
3561;SDS011;1795;52.074;4.754;2022-09-01T05:59:18;2.53;;;1.65;;
3561;SDS011;1795;52.074;4.754;2022-09-01T06:01:51;4.43;;;1.90;;
3561;SDS011;1795;52.074;4.754;2022-09-01T06:04:19;3.30;;;1.90;;
3561;SDS011;1795;52.074;4.754;2022-09-01T06:06:50;4.00;;;1.73;;
3561;SDS011;1795;52.074;4.754;2022-09-01T06:09:39;7.03;;;1.83;;
3561;SDS011;1795;52.074;4.754;2022-09-01T06:12:09;6.22;;;2.08;;
3561;SDS011;1795;52.074;4.754;2022-09-01T06:14:43;3.33;;;1.80;;
3561;SDS011;1795;52.074;4.754;2022-09-01T06:17:12;2.47;;;1.77;;
3561;SDS011;1795;52.074;4.754;2022-09-01T06:19:42;6.13;;;1.90;;
3561;SDS011;1795;52.074;4.754;2022-09-01T06:22:11;3.10;;;1.60;;
3561;SDS011;1795;52.074;4.754;2022-09-01T06:24:40;9.45;;;1.95;;
3561;SDS011;1795;52.074;4.754;2022-09-01T06:27:10;4.90;;;1.98;;
3561;SDS011;1795;52.074;4.754;2022-09-01T06:29:38;3.15;;;1.95;;
3561;SDS011;1795;52.074;4.754;2022-09-01T06:32:07;1.88;;;1.60;;
3561;SDS011;1795;52.074;4.754;2022-09-01T06:34:37;1.90;;;1.70;;
3561;SDS011;1795;52.074;4.754;2022-09-01T06:37:07;2.13;;;1.80;;
3561;SDS011;1795;52.074;4.754;2022-09-01T06:39:36;1.80;;;1.70;;
3561;SDS011;1795;52.074;4.754;2022-09-01T06:42:05;1.77;;;1.60;;
3561;SDS011;1795;52.074;4.754;2022-09-01T06:44:34;4.18;;;1.80;;
3561;SDS011;1795;52.074;4.754;2022-09-01T06:47:07;1.80;;;1.60;;
3561;SDS011;1795;52.074;4.754;2022-09-01T06:49:35;3.38;;;1.60;;
3561;SDS011;1795;52.074;4.754;2022-09-01T06:52:05;1.88;;;1.50;;
3561;SDS011;1795;52.074;4.754;2022-09-01T06:54:33;1.88;;;1.60;;
3561;SDS011;1795;52.074;4.754;2022-09-01T06:57:06;2.40;;;1.80;;
3561;SDS011;1795;52.074;4.754;2022-09-01T06:59:54;2.78;;;1.80;;
3561;SDS011;1795;52.074;4.754;2022-09-01T07:02:22;2.53;;;1.48;;
3561;SDS011;1795;52.074;4.754;2022-09-01T07:04:52;3.25;;;1.75;;
3561;SDS011;1795;52.074;4.754;2022-09-01T07:07:21;6.13;;;2.20;;
3561;SDS011;1795;52.074;4.754;2022-09-01T07:10:09;3.80;;;1.90;;
3561;SDS011;1795;52.074;4.754;2022-09-01T07:13:01;2.22;;;1.60;;
3561;SDS011;1795;52.074;4.754;2022-09-01T07:15:31;2.92;;;1.63;;
3561;SDS011;1795;52.074;4.754;2022-09-01T07:18:19;3.03;;;1.60;;
3561;SDS011;1795;52.074;4.754;2022-09-01T07:20:50;3.95;;;1.52;;
3561;SDS011;1795;52.074;4.754;2022-09-01T07:23:39;2.50;;;1.50;;
3561;SDS011;1795;52.074;4.754;2022-09-01T07:26:28;2.83;;;1.47;;
3561;SDS011;1795;52.074;4.754;2022-09-01T07:29:02;5.50;;;1.73;;
3561;SDS011;1795;52.074;4.754;2022-09-01T07:31:33;2.80;;;1.52;;
3561;SDS011;1795;52.074;4.754;2022-09-01T07:34:25;3.90;;;1.60;;
3561;SDS011;1795;52.074;4.754;2022-09-01T07:37:14;2.20;;;1.70;;
3561;SDS011;1795;52.074;4.754;2022-09-01T07:40:03;4.60;;;1.40;;
3561;SDS011;1795;52.074;4.754;2022-09-01T07:42:52;1.50;;;1.33;;
3561;SDS011;1795;52.074;4.754;2022-09-01T07:45:42;6.90;;;1.60;;
3561;SDS011;1795;52.074;4.754;2022-09-01T07:48:24;2.00;;;1.60;;
3561;SDS011;1795;52.074;4.754;2022-09-01T07:51:13;3.90;;;1.20;;
3561;SDS011;1795;52.074;4.754;2022-09-01T07:54:02;5.85;;;1.45;;
3561;SDS011;1795;52.074;4.754;2022-09-01T07:56:30;5.00;;;1.50;;
3561;SDS011;1795;52.074;4.754;2022-09-01T07:59:05;2.53;;;1.63;;
3561;SDS011;1795;52.074;4.754;2022-09-01T08:01:35;1.60;;;1.50;;
3561;SDS011;1795;52.074;4.754;2022-09-01T08:04:03;4.22;;;1.40;;
3561;SDS011;1795;52.074;4.754;2022-09-01T08:06:30;1.40;;;1.23;;
3561;SDS011;1795;52.074;4.754;2022-09-01T08:09:06;4.00;;;1.45;;
3561;SDS011;1795;52.074;4.754;2022-09-01T08:11:50;2.20;;;1.10;;
3561;SDS011;1795;52.074;4.754;2022-09-01T08:14:33;3.40;;;1.40;;
3561;SDS011;1795;52.074;4.754;2022-09-01T08:17:03;3.90;;;1.60;;
3561;SDS011;1795;52.074;4.754;2022-09-01T08:19:51;1.80;;;1.40;;
3561;SDS011;1795;52.074;4.754;2022-09-01T08:22:19;5.10;;;1.40;;
3561;SDS011;1795;52.074;4.754;2022-09-01T08:24:49;2.47;;;1.40;;
3561;SDS011;1795;52.074;4.754;2022-09-01T08:27:18;3.22;;;1.30;;
3561;SDS011;1795;52.074;4.754;2022-09-01T08:29:46;1.45;;;1.27;;
3561;SDS011;1795;52.074;4.754;2022-09-01T08:32:16;3.25;;;1.30;;
3561;SDS011;1795;52.074;4.754;2022-09-01T08:34:45;2.40;;;1.40;;
3561;SDS011;1795;52.074;4.754;2022-09-01T08:37:13;5.60;;;1.50;;
3561;SDS011;1795;52.074;4.754;2022-09-01T08:39:41;4.50;;;1.60;;
3561;SDS011;1795;52.074;4.754;2022-09-01T08:42:11;1.30;;;1.10;;
3561;SDS011;1795;52.074;4.754;2022-09-01T08:44:48;2.78;;;1.30;;
3561;SDS011;1795;52.074;4.754;2022-09-01T08:47:25;4.15;;;1.50;;
3561;SDS011;1795;52.074;4.754;2022-09-01T08:50:00;1.50;;;1.40;;
3561;SDS011;1795;52.074;4.754;2022-09-01T08:52:32;5.05;;;1.65;;
3561;SDS011;1795;52.074;4.754;2022-09-01T08:55:04;3.20;;;1.33;;
3561;SDS011;1795;52.074;4.754;2022-09-01T08:57:37;3.75;;;1.25;;
3561;SDS011;1795;52.074;4.754;2022-09-01T09:00:08;2.90;;;1.25;;
3561;SDS011;1795;52.074;4.754;2022-09-01T09:02:44;5.33;;;1.30;;
3561;SDS011;1795;52.074;4.754;2022-09-01T09:05:22;5.00;;;1.42;;
3561;SDS011;1795;52.074;4.754;2022-09-01T09:08:01;2.03;;;1.20;;
3561;SDS011;1795;52.074;4.754;2022-09-01T09:10:42;4.07;;;1.30;;
3561;SDS011;1795;52.074;4.754;2022-09-01T09:13:20;3.28;;;1.30;;
3561;SDS011;1795;52.074;4.754;2022-09-01T09:15:54;4.17;;;1.30;;
3561;SDS011;1795;52.074;4.754;2022-09-01T09:18:36;1.90;;;1.00;;
3561;SDS011;1795;52.074;4.754;2022-09-01T09:21:26;2.88;;;1.27;;
3561;SDS011;1795;52.074;4.754;2022-09-01T09:23:59;3.00;;;1.20;;
3561;SDS011;1795;52.074;4.754;2022-09-01T09:26:32;2.77;;;0.90;;
3561;SDS011;1795;52.074;4.754;2022-09-01T09:29:08;5.40;;;1.27;;
3561;SDS011;1795;52.074;4.754;2022-09-01T09:31:37;1.83;;;1.10;;
3561;SDS011;1795;52.074;4.754;2022-09-01T09:34:16;3.40;;;1.13;;
3561;SDS011;1795;52.074;4.754;2022-09-01T09:36:55;2.70;;;1.08;;
3561;SDS011;1795;52.074;4.754;2022-09-01T09:39:23;3.70;;;1.20;;
3561;SDS011;1795;52.074;4.754;2022-09-01T09:42:00;3.10;;;1.10;;
3561;SDS011;1795;52.074;4.754;2022-09-01T09:44:38;4.05;;;1.15;;
3561;SDS011;1795;52.074;4.754;2022-09-01T09:47:10;1.23;;;1.10;;
3561;SDS011;1795;52.074;4.754;2022-09-01T09:50:12;2.25;;;1.10;;
3561;SDS011;1795;52.074;4.754;2022-09-01T09:52:45;2.47;;;1.00;;
3561;SDS011;1795;52.074;4.754;2022-09-01T09:55:19;3.80;;;1.20;;
3561;SDS011;1795;52.074;4.754;2022-09-01T09:57:52;2.30;;;0.90;;
3561;SDS011;1795;52.074;4.754;2022-09-01T10:00:24;5.18;;;1.25;;
3561;SDS011;1795;52.074;4.754;2022-09-01T10:02:55;3.85;;;1.10;;
3561;SDS011;1795;52.074;4.754;2022-09-01T10:05:36;5.00;;;1.00;;
3561;SDS011;1795;52.074;4.754;2022-09-01T10:08:09;4.00;;;1.20;;
3561;SDS011;1795;52.074;4.754;2022-09-01T10:10:39;3.30;;;1.20;;
3561;SDS011;1795;52.074;4.754;2022-09-01T10:13:10;3.80;;;1.05;;
3561;SDS011;1795;52.074;4.754;2022-09-01T10:15:40;10.00;;;1.20;;
3561;SDS011;1795;52.074;4.754;2022-09-01T10:18:17;1.75;;;1.30;;
3561;SDS011;1795;52.074;4.754;2022-09-01T10:20:56;4.80;;;0.90;;
3561;SDS011;1795;52.074;4.754;2022-09-01T10:23:27;4.70;;;1.00;;
3561;SDS011;1795;52.074;4.754;2022-09-01T10:26:00;1.40;;;1.30;;
3561;SDS011;1795;52.074;4.754;2022-09-01T10:28:37;2.67;;;1.10;;
3561;SDS011;1795;52.074;4.754;2022-09-01T10:31:15;3.60;;;1.00;;
3561;SDS011;1795;52.074;4.754;2022-09-01T10:33:45;6.60;;;1.10;;
3561;SDS011;1795;52.074;4.754;2022-09-01T10:36:15;1.30;;;1.20;;
3561;SDS011;1795;52.074;4.754;2022-09-01T10:38:45;2.63;;;1.00;;
3561;SDS011;1795;52.074;4.754;2022-09-01T10:44:17;1.20;;;1.10;;
3561;SDS011;1795;52.074;4.754;2022-09-01T10:46:48;2.85;;;0.98;;
3561;SDS011;1795;52.074;4.754;2022-09-01T10:49:19;1.85;;;1.30;;
3561;SDS011;1795;52.074;4.754;2022-09-01T10:52:15;4.50;;;1.10;;
3561;SDS011;1795;52.074;4.754;2022-09-01T10:55:24;0.80;;;0.80;;
3561;SDS011;1795;52.074;4.754;2022-09-01T11:01:14;1.60;;;1.00;;
3561;SDS011;1795;52.074;4.754;2022-09-01T11:04:03;2.20;;;1.00;;
3561;SDS011;1795;52.074;4.754;2022-09-01T11:10:05;3.27;;;1.50;;
3561;SDS011;1795;52.074;4.754;2022-09-01T11:13:05;1.50;;;0.90;;
3561;SDS011;1795;52.074;4.754;2022-09-01T11:15:53;3.38;;;1.10;;
3561;SDS011;1795;52.074;4.754;2022-09-01T11:18:26;4.10;;;1.10;;
3561;SDS011;1795;52.074;4.754;2022-09-01T11:21:04;1.20;;;1.10;;
3561;SDS011;1795;52.074;4.754;2022-09-01T11:23:41;2.17;;;1.10;;
3561;SDS011;1795;52.074;4.754;2022-09-01T11:32:18;3.87;;;1.40;;
3561;SDS011;1795;52.074;4.754;2022-09-01T11:34:49;1.63;;;1.00;;
3561;SDS011;1795;52.074;4.754;2022-09-01T11:37:20;1.80;;;1.30;;
3561;SDS011;1795;52.074;4.754;2022-09-01T11:39:53;1.63;;;1.00;;
3561;SDS011;1795;52.074;4.754;2022-09-01T11:42:26;2.00;;;0.97;;
3561;SDS011;1795;52.074;4.754;2022-09-01T11:45:01;2.63;;;1.50;;
3561;SDS011;1795;52.074;4.754;2022-09-01T11:47:32;2.00;;;0.80;;
3561;SDS011;1795;52.074;4.754;2022-09-01T11:50:05;1.05;;;0.95;;
3561;SDS011;1795;52.074;4.754;2022-09-01T11:52:35;1.60;;;0.90;;
3561;SDS011;1795;52.074;4.754;2022-09-01T11:55:07;3.20;;;0.95;;
3561;SDS011;1795;52.074;4.754;2022-09-01T11:57:38;1.25;;;0.80;;
3561;SDS011;1795;52.074;4.754;2022-09-01T12:00:07;3.00;;;1.00;;
3561;SDS011;1795;52.074;4.754;2022-09-01T12:02:42;1.90;;;0.90;;
3561;SDS011;1795;52.074;4.754;2022-09-01T12:05:26;1.38;;;1.17;;
3561;SDS011;1795;52.074;4.754;2022-09-01T12:07:56;1.25;;;0.90;;
3561;SDS011;1795;52.074;4.754;2022-09-01T12:10:28;1.30;;;0.90;;
3561;SDS011;1795;52.074;4.754;2022-09-01T12:13:01;1.73;;;1.20;;
3561;SDS011;1795;52.074;4.754;2022-09-01T12:15:30;2.30;;;1.00;;
3561;SDS011;1795;52.074;4.754;2022-09-01T12:18:14;3.00;;;0.90;;
3561;SDS011;1795;52.074;4.754;2022-09-01T12:20:46;0.90;;;0.90;;
3561;SDS011;1795;52.074;4.754;2022-09-01T12:23:17;1.30;;;1.00;;
3561;SDS011;1795;52.074;4.754;2022-09-01T12:25:50;3.45;;;0.90;;
3561;SDS011;1795;52.074;4.754;2022-09-01T12:28:22;4.10;;;1.10;;
3561;SDS011;1795;52.074;4.754;2022-09-01T12:30:55;0.90;;;0.90;;
3561;SDS011;1795;52.074;4.754;2022-09-01T12:33:25;1.10;;;1.00;;
3561;SDS011;1795;52.074;4.754;2022-09-01T12:38:40;2.60;;;0.95;;
3561;SDS011;1795;52.074;4.754;2022-09-01T12:41:21;4.20;;;0.90;;
3561;SDS011;1795;52.074;4.754;2022-09-01T12:46:56;2.10;;;0.80;;
3561;SDS011;1795;52.074;4.754;2022-09-01T12:49:26;3.40;;;0.90;;
3561;SDS011;1795;52.074;4.754;2022-09-01T12:52:17;2.70;;;0.90;;
3561;SDS011;1795;52.074;4.754;2022-09-01T12:54:50;1.20;;;1.10;;
3561;SDS011;1795;52.074;4.754;2022-09-01T12:57:25;2.30;;;0.90;;
3561;SDS011;1795;52.074;4.754;2022-09-01T13:00:06;4.88;;;0.80;;
3561;SDS011;1795;52.074;4.754;2022-09-01T13:02:41;1.23;;;0.90;;
3561;SDS011;1795;52.074;4.754;2022-09-01T13:05:16;0.98;;;0.75;;
3561;SDS011;1795;52.074;4.754;2022-09-01T13:07:46;2.07;;;0.80;;
3561;SDS011;1795;52.074;4.754;2022-09-01T13:10:14;4.50;;;1.10;;
3561;SDS011;1795;52.074;4.754;2022-09-01T13:12:43;1.90;;;0.93;;
3561;SDS011;1795;52.074;4.754;2022-09-01T13:15:13;2.40;;;0.90;;
3561;SDS011;1795;52.074;4.754;2022-09-01T13:17:41;1.10;;;1.00;;
3561;SDS011;1795;52.074;4.754;2022-09-01T13:20:09;1.40;;;0.80;;
3561;SDS011;1795;52.074;4.754;2022-09-01T13:22:38;0.90;;;0.90;;
3561;SDS011;1795;52.074;4.754;2022-09-01T13:25:10;0.90;;;0.90;;
3561;SDS011;1795;52.074;4.754;2022-09-01T13:27:38;1.00;;;0.90;;
3561;SDS011;1795;52.074;4.754;2022-09-01T13:30:09;2.80;;;0.80;;
3561;SDS011;1795;52.074;4.754;2022-09-01T13:32:42;1.20;;;0.80;;
3561;SDS011;1795;52.074;4.754;2022-09-01T13:35:30;1.60;;;0.90;;
3561;SDS011;1795;52.074;4.754;2022-09-01T13:37:58;4.40;;;0.90;;
3561;SDS011;1795;52.074;4.754;2022-09-01T13:40:26;1.40;;;0.80;;
3561;SDS011;1795;52.074;4.754;2022-09-01T13:42:54;3.03;;;0.75;;
3561;SDS011;1795;52.074;4.754;2022-09-01T13:45:23;1.02;;;0.82;;
3561;SDS011;1795;52.074;4.754;2022-09-01T13:47:52;0.75;;;0.75;;
3561;SDS011;1795;52.074;4.754;2022-09-01T13:50:40;1.00;;;0.80;;
3561;SDS011;1795;52.074;4.754;2022-09-01T13:53:29;2.90;;;0.90;;
3561;SDS011;1795;52.074;4.754;2022-09-01T13:55:57;2.45;;;0.82;;
3561;SDS011;1795;52.074;4.754;2022-09-01T13:58:25;2.35;;;0.80;;
3561;SDS011;1795;52.074;4.754;2022-09-01T14:00:53;1.00;;;0.80;;
3561;SDS011;1795;52.074;4.754;2022-09-01T14:03:22;1.20;;;0.80;;
3561;SDS011;1795;52.074;4.754;2022-09-01T14:05:50;1.40;;;0.75;;
3561;SDS011;1795;52.074;4.754;2022-09-01T14:08:19;1.02;;;0.60;;
3561;SDS011;1795;52.074;4.754;2022-09-01T14:10:49;1.20;;;0.80;;
3561;SDS011;1795;52.074;4.754;2022-09-01T14:13:18;3.88;;;0.80;;
3561;SDS011;1795;52.074;4.754;2022-09-01T14:15:47;0.70;;;0.70;;
3561;SDS011;1795;52.074;4.754;2022-09-01T14:18:16;1.42;;;0.98;;
3561;SDS011;1795;52.074;4.754;2022-09-01T14:20:46;3.80;;;0.80;;
3561;SDS011;1795;52.074;4.754;2022-09-01T14:23:16;1.20;;;0.70;;
3561;SDS011;1795;52.074;4.754;2022-09-01T14:25:46;1.95;;;1.00;;
3561;SDS011;1795;52.074;4.754;2022-09-01T14:28:15;1.83;;;0.88;;
3561;SDS011;1795;52.074;4.754;2022-09-01T14:30:46;2.28;;;0.90;;
3561;SDS011;1795;52.074;4.754;2022-09-01T14:33:14;3.30;;;0.93;;
3561;SDS011;1795;52.074;4.754;2022-09-01T14:35:44;2.60;;;0.90;;
3561;SDS011;1795;52.074;4.754;2022-09-01T14:38:15;1.95;;;0.80;;
3561;SDS011;1795;52.074;4.754;2022-09-01T14:40:45;8.05;;;1.10;;
3561;SDS011;1795;52.074;4.754;2022-09-01T14:43:14;1.20;;;0.80;;
3561;SDS011;1795;52.074;4.754;2022-09-01T14:45:42;1.88;;;0.90;;
3561;SDS011;1795;52.074;4.754;2022-09-01T14:48:13;1.00;;;0.90;;
3561;SDS011;1795;52.074;4.754;2022-09-01T14:50:42;2.15;;;1.00;;
3561;SDS011;1795;52.074;4.754;2022-09-01T14:53:15;1.52;;;0.70;;
3561;SDS011;1795;52.074;4.754;2022-09-01T14:55:44;1.27;;;0.90;;
3561;SDS011;1795;52.074;4.754;2022-09-01T14:58:12;1.20;;;0.90;;
3561;SDS011;1795;52.074;4.754;2022-09-01T15:00:40;7.75;;;0.90;;
3561;SDS011;1795;52.074;4.754;2022-09-01T15:03:10;4.68;;;0.90;;
3561;SDS011;1795;52.074;4.754;2022-09-01T15:05:38;2.70;;;1.00;;
3561;SDS011;1795;52.074;4.754;2022-09-01T15:08:06;2.78;;;0.77;;
3561;SDS011;1795;52.074;4.754;2022-09-01T15:10:48;0.90;;;0.80;;
3561;SDS011;1795;52.074;4.754;2022-09-01T15:13:16;2.10;;;0.80;;
3561;SDS011;1795;52.074;4.754;2022-09-01T15:15:44;1.90;;;0.90;;
3561;SDS011;1795;52.074;4.754;2022-09-01T15:18:12;1.20;;;0.80;;
3561;SDS011;1795;52.074;4.754;2022-09-01T15:20:40;2.60;;;1.20;;
3561;SDS011;1795;52.074;4.754;2022-09-01T15:23:12;0.90;;;0.90;;
3561;SDS011;1795;52.074;4.754;2022-09-01T15:25:42;2.30;;;0.70;;
3561;SDS011;1795;52.074;4.754;2022-09-01T15:28:12;1.50;;;0.80;;
3561;SDS011;1795;52.074;4.754;2022-09-01T15:30:40;4.70;;;0.95;;
3561;SDS011;1795;52.074;4.754;2022-09-01T15:33:12;1.55;;;0.93;;
3561;SDS011;1795;52.074;4.754;2022-09-01T15:35:41;3.20;;;0.90;;
3561;SDS011;1795;52.074;4.754;2022-09-01T15:38:10;1.50;;;0.82;;
3561;SDS011;1795;52.074;4.754;2022-09-01T15:40:43;2.17;;;0.90;;
3561;SDS011;1795;52.074;4.754;2022-09-01T15:43:25;1.15;;;0.90;;
3561;SDS011;1795;52.074;4.754;2022-09-01T15:45:54;1.15;;;0.80;;
3561;SDS011;1795;52.074;4.754;2022-09-01T15:48:24;1.27;;;0.90;;
3561;SDS011;1795;52.074;4.754;2022-09-01T15:50:52;1.10;;;0.90;;
3561;SDS011;1795;52.074;4.754;2022-09-01T15:53:28;2.45;;;0.95;;
3561;SDS011;1795;52.074;4.754;2022-09-01T15:55:56;0.88;;;0.80;;
3561;SDS011;1795;52.074;4.754;2022-09-01T15:58:26;1.50;;;0.90;;
3561;SDS011;1795;52.074;4.754;2022-09-01T16:01:09;2.50;;;1.10;;
3561;SDS011;1795;52.074;4.754;2022-09-01T16:03:37;1.70;;;0.70;;
3561;SDS011;1795;52.074;4.754;2022-09-01T16:06:06;2.83;;;1.10;;
3561;SDS011;1795;52.074;4.754;2022-09-01T16:08:35;1.33;;;0.95;;
3561;SDS011;1795;52.074;4.754;2022-09-01T16:11:04;2.08;;;1.10;;